Time;durP1;ratioP1;P1;durP2;ratioP2;P2;SDS_P1;SDS_P2;PMS_P1;PMS_P2;Temp;Humidity;BMP_temperature;BMP_pressure;BME280_temperature;BME280_humidity;BME280_pressure;Samples;Min_cycle;Max_cycle;Signal;HPM_P1;HPM_P2
2022/07/07 00:00:44;;;;;;;6.35;2.65;;;;;;;11.33;96.96;99052.22;5124592;28;20011;-70
2022/07/07 00:03:09;;;;;;;4.10;2.03;;;;;;;11.19;97.00;99042.81;5124325;28;20338;-70
2022/07/07 00:05:39;;;;;;;5.15;1.88;;;;;;;11.16;98.06;99051.63;5123989;28;20047;-70
2022/07/07 00:08:04;;;;;;;3.58;2.30;;;;;;;11.20;97.78;99044.56;5123843;28;20034;-70
2022/07/07 00:10:30;;;;;;;4.88;2.20;;;;;;;11.21;97.98;99041.91;5123946;28;20027;-70
2022/07/07 00:12:55;;;;;;;4.57;2.30;;;;;;;11.36;98.21;99031.09;5123959;28;20035;-70
2022/07/07 00:15:20;;;;;;;5.72;2.08;;;;;;;11.39;97.22;99022.31;5123700;28;20027;-70
2022/07/07 00:17:46;;;;;;;2.95;2.10;;;;;;;11.44;96.98;99023.97;5124025;28;20057;-70
2022/07/07 00:20:11;;;;;;;10.35;2.22;;;;;;;11.48;96.78;99023.00;5123864;28;20019;-70
2022/07/07 00:22:37;;;;;;;5.63;2.45;;;;;;;11.45;96.88;99015.16;5123766;28;20031;-70
2022/07/07 00:25:03;;;;;;;5.65;2.28;;;;;;;11.51;97.22;99009.78;5123756;28;20020;-70
2022/07/07 00:27:29;;;;;;;6.60;2.40;;;;;;;11.58;97.79;99016.66;5123583;28;20110;-70
2022/07/07 00:29:54;;;;;;;4.88;2.20;;;;;;;11.71;96.84;99018.22;5123558;28;20019;-70
2022/07/07 00:32:20;;;;;;;4.57;2.20;;;;;;;11.79;96.28;99026.88;5123850;28;20020;-70
2022/07/07 00:34:45;;;;;;;4.50;2.30;;;;;;;11.85;96.50;99029.41;5123635;28;20035;-70
2022/07/07 00:37:10;;;;;;;4.50;2.28;;;;;;;11.92;95.91;99023.13;5123757;28;20066;-70
2022/07/07 00:39:36;;;;;;;5.85;2.30;;;;;;;11.87;95.92;99019.69;5123983;28;20100;-70
2022/07/07 00:42:01;;;;;;;8.68;2.33;;;;;;;11.92;96.91;99022.25;5123607;28;20023;-70
2022/07/07 00:44:27;;;;;;;4.78;2.42;;;;;;;11.84;96.80;99022.41;5123456;28;20027;-70
2022/07/07 00:46:54;;;;;;;9.63;2.50;;;;;;;11.88;97.13;99017.94;5123717;28;20023;-70
2022/07/07 00:49:21;;;;;;;7.07;2.40;;;;;;;11.98;96.54;99017.75;5123541;28;20404;-70
2022/07/07 00:51:46;;;;;;;5.57;2.30;;;;;;;12.08;96.20;99018.41;5123798;28;20323;-70
2022/07/07 00:54:12;;;;;;;7.20;2.22;;;;;;;12.06;96.60;99005.25;5123883;28;20030;-70
2022/07/07 00:56:38;;;;;;;5.55;2.35;;;;;;;12.00;97.46;99005.41;5123878;28;20023;-70
2022/07/07 00:59:08;;;;;;;5.88;2.65;;;;;;;12.03;97.44;99002.72;5126638;28;20084;-70
2022/07/07 01:01:38;;;;;;;6.10;2.65;;;;;;;12.00;97.83;99010.69;5127429;28;20245;-70
2022/07/07 01:04:06;;;;;;;4.07;1.92;;;;;;;12.04;96.86;98999.16;5127645;28;20058;-70
2022/07/07 01:06:32;;;;;;;4.28;2.20;;;;;;;12.06;96.59;98999.97;5127512;28;20255;-70
2022/07/07 01:08:59;;;;;;;6.20;2.10;;;;;;;12.06;97.24;99007.91;5127325;28;20061;-70
2022/07/07 01:11:25;;;;;;;4.40;2.38;;;;;;;12.07;96.84;98996.47;5127443;28;20024;-70
2022/07/07 01:13:50;;;;;;;6.70;2.35;;;;;;;12.08;96.62;99003.47;5127178;28;20346;-70
2022/07/07 01:16:16;;;;;;;3.78;2.20;;;;;;;11.95;97.04;99007.25;5126986;28;20188;-70
2022/07/07 01:18:42;;;;;;;4.60;2.38;;;;;;;11.91;97.14;99002.06;5126715;28;20038;-70
2022/07/07 01:21:11;;;;;;;3.88;2.15;;;;;;;11.75;97.34;99004.13;5126792;28;20016;-70
2022/07/07 01:23:36;;;;;;;5.70;2.60;;;;;;;11.51;98.27;98988.69;5126598;28;20292;-70
2022/07/07 01:26:02;;;;;;;7.18;2.55;;;;;;;11.39;99.08;98988.88;5126531;28;20043;-70
2022/07/07 01:28:27;;;;;;;6.55;2.30;;;;;;;11.32;99.81;98987.25;5126579;28;20019;-70
2022/07/07 01:30:53;;;;;;;4.93;2.30;;;;;;;11.28;100.00;98969.75;5126264;28;20200;-70
2022/07/07 01:33:18;;;;;;;5.90;2.22;;;;;;;11.33;99.84;98974.97;5126635;28;20023;-70
2022/07/07 01:35:44;;;;;;;6.00;2.22;;;;;;;11.32;100.00;98976.72;5126701;28;20023;-70
2022/07/07 01:38:09;;;;;;;7.13;2.33;;;;;;;11.31;99.75;98972.34;5126995;28;20058;-70
2022/07/07 01:40:35;;;;;;;4.65;2.72;;;;;;;11.34;100.00;98974.94;5126724;28;20368;-70
2022/07/07 01:43:00;;;;;;;7.40;3.30;;;;;;;11.27;99.88;98977.69;5126662;28;20327;-70
2022/07/07 01:45:25;;;;;;;9.30;2.45;;;;;;;11.32;100.00;98966.19;5126616;28;20024;-70
2022/07/07 01:47:51;;;;;;;3.83;2.58;;;;;;;11.33;100.00;98973.19;5126606;28;20030;-70
2022/07/07 01:50:16;;;;;;;6.43;2.70;;;;;;;11.29;100.00;98968.00;5126483;28;20023;-70
2022/07/07 01:52:42;;;;;;;5.05;2.50;;;;;;;11.10;99.21;98961.31;5126459;28;20338;-70
2022/07/07 01:55:08;;;;;;;5.55;2.55;;;;;;;11.07;100.00;98964.00;5126452;28;20027;-70
2022/07/07 01:57:33;;;;;;;7.22;2.78;;;;;;;11.06;99.97;98972.75;5126370;28;20023;-70
2022/07/07 01:59:58;;;;;;;7.15;2.40;;;;;;;10.97;99.79;98968.50;5126284;28;20024;-70
2022/07/07 02:02:24;;;;;;;4.95;2.70;;;;;;;10.83;100.00;98965.25;5126072;28;20023;-70
2022/07/07 02:04:49;;;;;;;5.18;2.35;;;;;;;10.84;100.00;98969.59;5125815;28;20376;-70
2022/07/07 02:07:15;;;;;;;9.52;3.05;;;;;;;10.74;100.00;98963.63;5125891;28;20030;-70
2022/07/07 02:09:40;;;;;;;11.73;2.88;;;;;;;10.69;100.00;98959.28;5125588;28;20028;-70
2022/07/07 02:12:06;;;;;;;8.63;2.72;;;;;;;10.69;100.00;98964.56;5125538;28;20308;-70
2022/07/07 02:14:31;;;;;;;4.32;2.53;;;;;;;10.65;100.00;98968.13;5125669;28;20084;-70
2022/07/07 02:16:57;;;;;;;5.05;3.03;;;;;;;10.69;100.00;98972.44;5125569;28;20028;-70
2022/07/07 02:19:22;;;;;;;4.43;2.60;;;;;;;10.71;100.00;98966.28;5125799;28;20314;-70
2022/07/07 02:21:48;;;;;;;11.43;2.72;;;;;;;10.73;100.00;98968.91;5125561;28;20024;-70
2022/07/07 02:24:13;;;;;;;5.82;3.17;;;;;;;10.79;100.00;98974.09;5125626;28;20030;-70
2022/07/07 02:26:39;;;;;;;4.03;2.50;;;;;;;10.83;100.00;98981.03;5125414;28;20100;-70
2022/07/07 02:29:05;;;;;;;8.43;2.80;;;;;;;10.82;100.00;98969.63;5124083;28;20039;-70
2022/07/07 02:31:30;;;;;;;8.18;2.80;;;;;;;10.75;100.00;98967.09;5125485;28;20323;-70
2022/07/07 02:33:56;;;;;;;6.22;3.00;;;;;;;10.66;100.00;98968.09;5125437;28;20030;-70
2022/07/07 02:36:21;;;;;;;4.03;2.70;;;;;;;10.50;100.00;98970.97;5125230;28;20019;-70
2022/07/07 02:38:48;;;;;;;11.02;2.95;;;;;;;10.20;100.00;98966.13;5125284;28;20030;-70
2022/07/07 02:41:13;;;;;;;8.57;3.08;;;;;;;10.24;100.00;98973.06;5124980;28;20020;-70
2022/07/07 02:43:39;;;;;;;6.80;3.10;;;;;;;10.31;100.00;98970.34;5125231;28;20224;-70
2022/07/07 02:46:05;;;;;;;6.50;2.75;;;;;;;10.40;100.00;98958.84;5125143;28;20043;-70
2022/07/07 02:48:30;;;;;;;5.38;2.90;;;;;;;10.46;100.00;98964.00;5125211;28;20360;-70
2022/07/07 02:50:56;;;;;;;5.00;2.92;;;;;;;10.43;100.00;98958.78;5124707;28;20027;-70
2022/07/07 02:53:22;;;;;;;5.22;3.33;;;;;;;10.43;100.00;98950.91;5124954;28;20207;-70
2022/07/07 02:55:48;;;;;;;5.25;2.83;;;;;;;10.39;100.00;98952.72;5124873;28;20086;-70
2022/07/07 02:58:22;;;;;;;4.47;2.50;;;;;;;10.28;100.00;98951.97;5125056;28;20015;-70
2022/07/07 03:00:49;;;;;;;3.88;2.65;;;;;;;10.22;100.00;98953.84;5124945;28;20015;-70
2022/07/07 03:03:15;;;;;;;10.35;3.30;;;;;;;10.29;100.00;98950.22;5124719;28;20038;-70
2022/07/07 03:05:40;;;;;;;5.72;2.90;;;;;;;10.33;100.00;98949.28;5125032;28;20023;-70
2022/07/07 03:08:06;;;;;;;6.95;3.30;;;;;;;10.35;100.00;98951.00;5124806;28;20366;-70
2022/07/07 03:10:32;;;;;;;5.32;3.50;;;;;;;10.40;100.00;98959.72;5124475;28;20031;-70
2022/07/07 03:12:57;;;;;;;4.97;2.88;;;;;;;10.28;100.00;98956.34;5124540;28;20031;-70
2022/07/07 03:15:23;;;;;;;4.75;3.00;;;;;;;10.18;100.00;98963.50;5124879;28;20261;-70
2022/07/07 03:17:49;;;;;;;8.77;3.50;;;;;;;10.22;100.00;98964.34;5124927;28;20026;-70
2022/07/07 03:20:16;;;;;;;7.07;2.83;;;;;;;9.98;100.00;98959.34;5124432;28;20015;-70
2022/07/07 03:22:42;;;;;;;5.65;3.40;;;;;;;9.99;100.00;98953.19;5124365;28;20094;-70
2022/07/07 03:25:09;;;;;;;4.72;3.55;;;;;;;9.92;100.00;98954.16;5124297;28;20019;-70
2022/07/07 03:27:35;;;;;;;14.43;3.20;;;;;;;10.01;100.00;98960.19;5124283;28;20039;-70
2022/07/07 03:30:03;;;;;;;6.25;3.33;;;;;;;10.01;100.00;98970.72;5124344;28;20034;-70
2022/07/07 03:32:29;;;;;;;8.68;3.38;;;;;;;9.93;100.00;98967.28;5124445;28;20082;-70
2022/07/07 03:34:54;;;;;;;8.85;3.42;;;;;;;9.98;100.00;98965.50;5124199;28;20031;-70
2022/07/07 03:37:19;;;;;;;6.25;3.55;;;;;;;9.99;100.00;98966.34;5124472;28;20015;-70
2022/07/07 03:39:45;;;;;;;7.32;3.85;;;;;;;10.05;100.00;98961.00;5124359;28;20024;-70
2022/07/07 03:42:10;;;;;;;7.40;3.38;;;;;;;9.97;100.00;98953.22;5124140;28;20075;-70
2022/07/07 03:44:36;;;;;;;6.25;3.10;;;;;;;10.00;100.00;98957.59;5124110;28;20103;-70
2022/07/07 03:47:01;;;;;;;5.30;3.22;;;;;;;10.09;100.00;98952.22;5124282;28;20019;-70
2022/07/07 03:49:27;;;;;;;6.22;3.38;;;;;;;10.06;100.00;98952.25;5123935;28;20323;-70
2022/07/07 03:51:52;;;;;;;13.88;3.95;;;;;;;10.10;100.00;98946.09;5123831;28;20073;-70
2022/07/07 03:54:18;;;;;;;5.45;3.40;;;;;;;10.03;100.00;98939.13;5124041;28;20027;-70
2022/07/07 03:56:43;;;;;;;9.25;4.20;;;;;;;10.05;100.00;98939.97;5124388;28;20024;-70
2022/07/07 03:59:09;;;;;;;7.32;3.47;;;;;;;10.18;100.00;98949.47;5123858;28;20027;-70
2022/07/07 04:01:34;;;;;;;9.57;3.92;;;;;;;10.25;100.00;98953.78;5124052;28;20051;-70
2022/07/07 04:04:00;;;;;;;7.18;3.83;;;;;;;10.34;100.00;98953.66;5124079;28;20098;-70
2022/07/07 04:06:25;;;;;;;6.93;3.90;;;;;;;10.45;100.00;98962.28;5123864;28;20038;-70
2022/07/07 04:08:51;;;;;;;8.93;3.72;;;;;;;10.57;100.00;98970.00;5124119;28;20323;-70
2022/07/07 04:11:17;;;;;;;4.97;3.60;;;;;;;10.58;100.00;98963.84;5123958;28;20065;-70
2022/07/07 04:13:42;;;;;;;9.70;3.88;;;;;;;10.67;100.00;98955.84;5123849;28;20333;-70
2022/07/07 04:16:08;;;;;;;6.88;3.05;;;;;;;10.71;99.67;98950.50;5123987;28;20020;-70
2022/07/07 04:18:34;;;;;;;6.65;3.78;;;;;;;10.57;99.00;98956.84;5124224;28;20375;-70
2022/07/07 04:21:01;;;;;;;8.20;3.80;;;;;;;10.65;100.00;98949.72;5123866;28;20376;-70
2022/07/07 04:23:26;;;;;;;9.18;3.90;;;;;;;10.72;100.00;98952.22;5123630;28;20023;-70
2022/07/07 04:25:52;;;;;;;5.40;3.20;;;;;;;10.67;100.00;98954.03;5123707;28;20043;-70
2022/07/07 04:28:18;;;;;;;6.45;3.13;;;;;;;10.87;100.00;98961.66;5123075;28;20027;-70
2022/07/07 04:30:44;;;;;;;10.25;3.45;;;;;;;10.86;99.45;98944.97;5123063;28;20051;-70
2022/07/07 04:33:09;;;;;;;5.90;3.45;;;;;;;10.90;99.72;98951.06;5122937;28;20031;-70
2022/07/07 04:35:35;;;;;;;6.40;3.65;;;;;;;11.05;99.66;98945.56;5127965;28;20043;-70
2022/07/07 04:38:00;;;;;;;8.25;3.60;;;;;;;11.07;99.61;98959.56;5127981;28;20338;-70
2022/07/07 04:40:26;;;;;;;5.70;4.03;;;;;;;11.93;98.14;98955.44;5127908;28;20027;-70
2022/07/07 04:42:52;;;;;;;10.30;3.53;;;;;;;12.16;95.51;98953.19;5127759;28;20019;-70
2022/07/07 04:45:17;;;;;;;7.57;2.97;;;;;;;13.14;93.82;98954.50;5127776;28;20034;-70
2022/07/07 04:47:43;;;;;;;7.63;3.10;;;;;;;13.65;89.33;98941.72;5127755;28;20020;-70
2022/07/07 04:50:10;;;;;;;4.47;2.72;;;;;;;13.20;88.85;98932.31;5127657;28;20045;-70
2022/07/07 04:52:38;;;;;;;3.30;2.55;;;;;;;13.07;90.63;98930.91;5109705;28;20075;-70
2022/07/07 04:55:05;;;;;;;7.68;2.67;;;;;;;13.15;90.33;98928.91;5127653;28;20219;-70
2022/07/07 04:57:31;;;;;;;6.80;3.00;;;;;;;13.75;89.78;98940.56;5127828;28;20019;-70
2022/07/07 04:59:57;;;;;;;6.78;2.97;;;;;;;13.61;89.25;98929.47;5127518;28;20038;-70
2022/07/07 05:02:22;;;;;;;12.35;3.67;;;;;;;13.48;90.57;98934.22;5127500;28;20024;-70
2022/07/07 05:04:49;;;;;;;9.15;3.60;;;;;;;13.27;92.06;98940.06;5127521;28;20082;-70
2022/07/07 05:07:15;;;;;;;6.93;3.00;;;;;;;13.38;91.50;98937.16;5127644;28;20019;-70
2022/07/07 05:09:40;;;;;;;4.78;3.17;;;;;;;13.70;91.94;98945.97;5127369;28;20019;-70
2022/07/07 05:12:06;;;;;;;6.15;3.10;;;;;;;14.27;88.34;98954.13;5127234;28;20364;-70
2022/07/07 05:14:31;;;;;;;14.05;3.50;;;;;;;14.00;88.93;98952.19;5127234;28;20024;-70
2022/07/07 05:16:57;;;;;;;6.03;2.88;;;;;;;14.00;90.17;98952.19;5127223;28;20019;-70
2022/07/07 05:19:22;;;;;;;11.75;3.55;;;;;;;13.88;90.63;98944.59;5127381;28;20065;-70
2022/07/07 05:21:48;;;;;;;9.07;4.30;;;;;;;13.79;90.26;98951.00;5127199;28;20065;-70
2022/07/07 05:24:14;;;;;;;7.15;3.30;;;;;;;13.79;91.24;98948.38;5127044;28;20015;-70
2022/07/07 05:26:39;;;;;;;9.90;3.45;;;;;;;13.84;91.03;98950.88;5126892;28;20179;-70
2022/07/07 05:29:05;;;;;;;15.82;3.42;;;;;;;13.88;90.74;98955.19;5126889;28;20096;-70
2022/07/07 05:31:30;;;;;;;9.00;3.38;;;;;;;14.04;91.97;98964.44;5127122;28;20019;-70
2022/07/07 05:33:56;;;;;;;12.98;3.17;;;;;;;14.13;91.36;98966.81;5126902;28;20060;-70
2022/07/07 05:36:21;;;;;;;7.70;3.47;;;;;;;14.20;93.61;98957.78;5126795;28;20030;-70
2022/07/07 05:38:47;;;;;;;16.38;3.53;;;;;;;14.25;90.61;98955.94;5126804;28;20065;-70
2022/07/07 05:41:12;;;;;;;11.10;3.70;;;;;;;14.34;90.13;98960.97;5126722;28;20020;-70
2022/07/07 05:43:38;;;;;;;8.90;3.03;;;;;;;14.36;88.98;98964.41;5126038;28;20020;-70
2022/07/07 05:46:03;;;;;;;16.60;3.28;;;;;;;14.41;88.44;98957.22;5126640;28;20065;-70
2022/07/07 05:48:29;;;;;;;8.48;3.35;;;;;;;14.53;89.37;98956.84;5126543;28;20019;-70
2022/07/07 05:50:54;;;;;;;8.00;3.33;;;;;;;14.74;88.45;98950.88;5126413;28;20019;-70
2022/07/07 05:53:20;;;;;;;8.68;3.65;;;;;;;14.90;88.82;98952.16;5126532;28;20016;-70
2022/07/07 05:55:45;;;;;;;8.00;3.28;;;;;;;15.12;90.32;98958.50;5126451;28;20023;-70
2022/07/07 05:58:12;;;;;;;23.15;3.90;;;;;;;15.27;89.87;98955.34;5126373;28;20019;-70
2022/07/07 06:00:37;;;;;;;6.47;3.35;;;;;;;15.49;89.33;98956.41;5126358;28;20015;-70
2022/07/07 06:03:03;;;;;;;10.02;3.55;;;;;;;15.70;88.02;98962.78;5126537;28;20022;-70
2022/07/07 06:05:28;;;;;;;9.93;3.92;;;;;;;15.68;85.87;98960.16;5126238;28;20019;-70
2022/07/07 06:07:53;;;;;;;5.32;3.13;;;;;;;15.79;86.91;98968.63;5126256;28;20371;-70
2022/07/07 06:10:19;;;;;;;5.80;3.35;;;;;;;15.86;86.89;98972.81;5126145;28;20019;-70
2022/07/07 06:12:44;;;;;;;7.50;3.55;;;;;;;16.01;87.35;98985.53;5126217;28;20027;-70
2022/07/07 06:15:10;;;;;;;8.48;4.05;;;;;;;16.37;87.43;98989.53;5126044;28;20366;-70
2022/07/07 06:17:36;;;;;;;11.57;4.00;;;;;;;18.30;81.58;98987.78;5125967;28;20027;-70
2022/07/07 06:20:02;;;;;;;6.88;3.13;;;;;;;18.50;74.07;98985.13;5126235;28;20020;-70
2022/07/07 06:22:29;;;;;;;8.02;2.80;;;;;;;18.38;74.32;98985.66;5126247;28;20370;-70
2022/07/07 06:24:54;;;;;;;12.43;3.80;;;;;;;18.38;75.36;98990.16;5126128;28;20015;-70
2022/07/07 06:27:20;;;;;;;6.88;3.45;;;;;;;19.50;72.49;98991.03;5125620;28;20043;-70
2022/07/07 06:29:47;;;;;;;5.75;2.60;;;;;;;19.89;69.73;98987.22;5125758;28;20226;-70
2022/07/07 06:32:15;;;;;;;9.23;2.70;;;;;;;20.59;68.64;98987.06;5125610;28;20026;-70
2022/07/07 06:34:40;;;;;;;11.65;3.30;;;;;;;20.89;65.83;98972.88;5125662;28;20116;-70
2022/07/07 06:37:06;;;;;;;11.90;3.50;;;;;;;20.33;67.38;98980.47;5125631;28;20023;-70
2022/07/07 06:39:31;;;;;;;7.32;2.60;;;;;;;19.86;67.53;98971.34;5125571;28;20035;-70
2022/07/07 06:41:57;;;;;;;4.60;2.78;;;;;;;19.39;69.25;98970.19;5125592;28;20079;-70
2022/07/07 06:44:22;;;;;;;6.68;2.63;;;;;;;18.89;71.55;98971.75;5125508;28;20064;-70
2022/07/07 06:46:47;;;;;;;7.90;3.40;;;;;;;18.26;71.94;98964.84;5125472;28;20026;-70
2022/07/07 06:49:13;;;;;;;13.05;3.42;;;;;;;17.88;74.12;98967.50;5125386;28;20023;-70
2022/07/07 06:51:39;;;;;;;8.02;3.25;;;;;;;17.80;74.83;98964.28;5125318;28;20043;-70
2022/07/07 06:54:04;;;;;;;12.90;4.00;;;;;;;17.67;74.59;98957.75;5125325;28;20084;-70
2022/07/07 06:56:30;;;;;;;5.85;2.88;;;;;;;17.79;75.84;98967.88;5124417;28;20120;-70
2022/07/07 06:58:55;;;;;;;13.77;3.17;;;;;;;18.02;75.22;98975.75;5125242;28;20024;-70
2022/07/07 07:01:21;;;;;;;13.10;3.30;;;;;;;17.93;74.86;98966.34;5125183;28;20015;-70
2022/07/07 07:03:46;;;;;;;6.63;3.10;;;;;;;17.79;75.93;98967.88;5125174;28;20023;-70
2022/07/07 07:06:11;;;;;;;10.75;3.60;;;;;;;17.78;78.14;98976.81;5125109;28;20043;-70
2022/07/07 07:08:37;;;;;;;8.32;4.00;;;;;;;17.67;78.73;98974.59;5125324;28;20307;-70
2022/07/07 07:11:03;;;;;;;11.73;3.58;;;;;;;17.63;78.09;98970.34;5124896;28;20207;-70
2022/07/07 07:13:29;;;;;;;11.25;3.90;;;;;;;17.67;77.04;98974.59;5124985;28;20027;-70
2022/07/07 07:15:55;;;;;;;8.27;4.30;;;;;;;17.72;77.34;98977.06;5124984;28;20023;-70
2022/07/07 07:18:20;;;;;;;8.88;3.85;;;;;;;17.79;77.12;98983.88;5124878;28;20026;-70
2022/07/07 07:20:46;;;;;;;11.10;4.50;;;;;;;17.73;78.27;98974.34;5124817;28;20016;-70
2022/07/07 07:23:11;;;;;;;8.20;3.90;;;;;;;17.69;77.79;98982.53;5124833;28;20312;-70
2022/07/07 07:25:36;;;;;;;12.48;4.00;;;;;;;17.82;78.23;98981.06;5124648;28;20046;-70
2022/07/07 07:28:02;;;;;;;9.07;4.18;;;;;;;17.82;77.49;98975.75;5124725;28;20023;-70
2022/07/07 07:30:27;;;;;;;11.60;3.80;;;;;;;17.90;76.90;98981.59;5124636;28;20028;-70
2022/07/07 07:32:53;;;;;;;11.55;3.92;;;;;;;18.00;78.67;98988.28;5124717;28;20087;-70
2022/07/07 07:35:18;;;;;;;7.00;3.45;;;;;;;18.02;79.02;98994.38;5124924;28;20023;-70
2022/07/07 07:37:44;;;;;;;14.20;3.78;;;;;;;18.04;78.90;99000.53;5124639;28;20084;-70
2022/07/07 07:40:11;;;;;;;9.68;3.50;;;;;;;18.02;78.88;99002.38;5124582;28;20024;-70
2022/07/07 07:42:38;;;;;;;8.27;3.10;;;;;;;18.07;79.49;99000.41;5124834;28;20019;-70
2022/07/07 07:45:10;;;;;;;6.35;3.35;;;;;;;18.09;79.21;99006.50;5124544;28;20367;-70
2022/07/07 07:47:46;;;;;;;9.55;4.30;;;;;;;18.15;80.07;99003.56;5124523;28;20024;-70
2022/07/07 07:50:15;;;;;;;10.02;3.45;;;;;;;18.22;77.70;98994.41;5124411;28;20026;-70
2022/07/07 07:52:42;;;;;;;12.38;3.78;;;;;;;18.38;77.70;99001.66;5124435;28;20327;-70
2022/07/07 07:55:10;;;;;;;14.65;4.38;;;;;;;18.44;77.61;99000.50;5124470;28;20323;-70
2022/07/07 07:57:36;;;;;;;21.63;4.30;;;;;;;18.51;77.52;99002.00;5124443;28;20078;-70
2022/07/07 08:00:03;;;;;;;18.27;3.85;;;;;;;18.62;77.50;98995.22;5124377;28;20035;-70
2022/07/07 08:02:29;;;;;;;6.57;3.50;;;;;;;18.81;76.75;99000.56;5124370;28;20027;-70
2022/07/07 08:04:54;;;;;;;10.25;3.45;;;;;;;19.10;75.89;99010.75;5124384;28;20019;-70
2022/07/07 08:07:20;;;;;;;6.68;2.72;;;;;;;19.50;74.72;99017.72;5126330;28;20020;-70
2022/07/07 08:09:45;;;;;;;8.15;3.42;;;;;;;19.88;72.67;99020.22;5128565;28;20030;-70
2022/07/07 08:12:11;;;;;;;9.70;3.50;;;;;;;20.18;70.06;99018.69;5128378;28;20020;-70
2022/07/07 08:14:37;;;;;;;4.80;2.80;;;;;;;20.22;70.03;99014.06;5128397;28;20015;-70
2022/07/07 08:17:02;;;;;;;9.77;3.33;;;;;;;20.11;71.24;99017.25;5128313;28;20035;-70
2022/07/07 08:19:28;;;;;;;6.97;2.85;;;;;;;20.04;70.24;99010.50;5128322;28;20391;-70
2022/07/07 08:21:53;;;;;;;11.43;3.33;;;;;;;19.96;71.04;99018.03;5128327;28;20023;-70
2022/07/07 08:24:19;;;;;;;6.63;2.95;;;;;;;19.97;70.82;99014.44;5128290;28;20427;-70
2022/07/07 08:26:44;;;;;;;8.35;3.45;;;;;;;19.99;70.67;99011.69;5128056;28;20051;-70
2022/07/07 08:29:10;;;;;;;8.93;3.08;;;;;;;20.09;71.78;99015.59;5128130;28;20032;-70
2022/07/07 08:31:35;;;;;;;9.25;3.30;;;;;;;20.32;71.47;99020.66;5128019;28;20023;-70
2022/07/07 08:34:01;;;;;;;7.82;3.47;;;;;;;20.35;70.92;99015.97;5128103;28;20103;-70
2022/07/07 08:36:27;;;;;;;4.35;2.30;;;;;;;20.42;69.62;99017.41;5128024;28;20074;-70
2022/07/07 08:38:52;;;;;;;5.63;2.67;;;;;;;20.52;67.73;99013.31;5128043;28;20185;-70
2022/07/07 08:41:18;;;;;;;7.32;2.90;;;;;;;20.47;69.13;99015.34;5127836;28;20019;-70
2022/07/07 08:43:44;;;;;;;18.58;3.80;;;;;;;20.26;71.01;99019.16;5127814;28;20027;-70
2022/07/07 08:46:10;;;;;;;9.35;3.13;;;;;;;20.01;72.07;99007.97;5127851;28;20054;-70
2022/07/07 08:48:35;;;;;;;10.60;2.90;;;;;;;19.84;72.98;99007.94;5127808;28;20027;-70
2022/07/07 08:51:01;;;;;;;6.47;2.97;;;;;;;19.78;72.87;99007.41;5127643;28;20042;-70
2022/07/07 08:53:35;;;;;;;13.30;3.47;;;;;;;19.69;73.43;99008.75;5127736;28;20024;-70
2022/07/07 08:56:08;;;;;;;6.10;2.97;;;;;;;19.83;72.51;99011.56;5127716;28;20215;-70
2022/07/07 08:58:35;;;;;;;5.93;2.58;;;;;;;19.87;71.36;99010.47;5127623;28;20039;-70
2022/07/07 09:01:05;;;;;;;4.60;2.63;;;;;;;19.88;71.28;99004.19;5127781;28;20023;-70
2022/07/07 09:03:30;;;;;;;8.85;2.40;;;;;;;19.79;71.61;99015.34;5127514;28;20025;-70
2022/07/07 09:05:57;;;;;;;4.43;2.85;;;;;;;19.57;72.83;99004.00;5127541;28;20047;-70
2022/07/07 09:08:24;;;;;;;11.90;3.03;;;;;;;19.60;72.55;98998.50;5127387;28;20019;-70
2022/07/07 09:10:50;;;;;;;6.88;2.83;;;;;;;19.62;74.24;98996.63;5127267;28;20020;-70
2022/07/07 09:13:23;;;;;;;8.60;2.67;;;;;;;19.84;72.25;99007.94;5127424;28;20346;-70
2022/07/07 09:15:50;;;;;;;6.57;2.35;;;;;;;19.85;72.40;99004.34;5127181;28;20031;-70
2022/07/07 09:18:48;;;;;;;10.77;3.00;;;;;;;19.96;73.61;99012.69;5126094;28;20094;-70
2022/07/07 09:21:26;;;;;;;6.05;2.50;;;;;;;19.92;72.89;99013.78;5082323;28;20035;-70
2022/07/07 09:23:53;;;;;;;7.50;2.95;;;;;;;19.93;73.27;99006.66;5127066;28;20094;-70
2022/07/07 09:26:41;;;;;;;5.22;2.70;;;;;;;19.97;71.71;99008.22;5127058;28;20043;-70
2022/07/07 09:29:09;;;;;;;5.78;3.33;;;;;;;20.06;72.09;99008.59;5127001;28;20211;-70
2022/07/07 09:31:51;;;;;;;4.28;2.13;;;;;;;20.24;70.60;99012.16;5126909;28;20019;-70
2022/07/07 09:34:17;;;;;;;;;;;;;;;20.42;70.38;99022.75;5127320;28;20072;-70
2022/07/07 09:39:46;;;;;;;3.90;2.72;;;;;;;20.68;70.11;99016.88;5126851;28;20124;-70
2022/07/07 09:42:31;;;;;;;12.80;2.90;;;;;;;20.68;71.51;99016.88;5127035;28;20045;-70
2022/07/07 09:45:05;;;;;;;7.22;3.45;;;;;;;20.64;71.47;99018.00;5126954;28;20319;-70
2022/07/07 09:47:32;;;;;;;10.40;3.08;;;;;;;20.52;70.56;99013.31;5126905;28;20311;-70
2022/07/07 09:50:04;;;;;;;8.05;2.50;;;;;;;20.48;70.78;99013.53;5126846;28;20023;-70
2022/07/07 09:52:32;;;;;;;9.25;2.67;;;;;;;20.48;70.89;99010.88;5126568;28;20452;-70
2022/07/07 09:54:59;;;;;;;6.38;2.47;;;;;;;20.53;71.45;99015.03;5126762;28;20184;-70
2022/07/07 09:57:25;;;;;;;6.53;2.47;;;;;;;20.87;71.53;99017.63;5126462;28;20069;-70
2022/07/07 09:59:51;;;;;;;4.25;2.38;;;;;;;21.30;69.35;99019.66;5126405;28;20027;-70
2022/07/07 10:02:22;;;;;;;4.22;2.30;;;;;;;21.63;67.18;99022.25;5126281;28;20039;-70
2022/07/07 10:04:52;;;;;;;6.78;2.63;;;;;;;21.69;67.31;99021.00;5126267;28;20047;-70
2022/07/07 10:07:22;;;;;;;5.18;2.53;;;;;;;21.98;66.97;99017.53;5126525;28;20015;-70
2022/07/07 10:10:01;;;;;;;4.22;2.50;;;;;;;22.06;65.34;99016.13;5126253;28;20028;-70
2022/07/07 10:12:28;;;;;;;3.25;1.88;;;;;;;22.27;65.23;99019.34;5126050;28;20027;-70
2022/07/07 10:14:59;;;;;;;8.75;2.20;;;;;;;22.43;65.21;99026.34;5126096;28;20261;-70
2022/07/07 10:17:26;;;;;;;4.10;2.13;;;;;;;22.76;63.24;99023.47;5126013;28;20028;-70
2022/07/07 10:19:52;;;;;;;9.45;2.72;;;;;;;22.70;63.93;99026.53;5126053;28;20026;-70
2022/07/07 10:22:21;;;;;;;7.00;2.50;;;;;;;22.64;63.27;99019.72;5125993;28;20023;-70
2022/07/07 10:24:47;;;;;;;4.13;2.25;;;;;;;22.27;65.35;99022.88;5125794;28;20031;-70
2022/07/07 10:27:15;;;;;;;3.67;2.03;;;;;;;22.46;64.42;99030.69;5125653;28;20052;-70
2022/07/07 10:29:52;;;;;;;3.95;2.10;;;;;;;22.78;65.07;99033.13;5125594;28;20034;-70
2022/07/07 10:32:39;;;;;;;5.25;2.00;;;;;;;22.56;63.61;99021.16;5125759;28;20311;-70
2022/07/07 10:35:09;;;;;;;9.05;2.10;;;;;;;22.24;63.60;99024.91;5125702;28;20090;-70
2022/07/07 10:37:46;;;;;;;5.97;2.10;;;;;;;22.08;64.48;99021.41;5125882;28;20261;-70
2022/07/07 10:40:21;;;;;;;7.05;2.22;;;;;;;21.72;65.22;99023.50;5125603;28;20090;-70
2022/07/07 10:42:53;;;;;;;7.35;2.33;;;;;;;21.47;65.59;99015.16;5125562;28;20023;-70
2022/07/07 10:45:19;;;;;;;4.20;2.17;;;;;;;21.45;66.53;99017.09;5125563;28;20023;-70
2022/07/07 10:47:44;;;;;;;11.02;1.90;;;;;;;21.82;64.60;99022.06;5125482;28;20038;-70
2022/07/07 10:50:26;;;;;;;6.55;2.15;;;;;;;21.45;64.97;99014.41;5125364;28;20042;-70
2022/07/07 10:52:53;;;;;;;5.03;2.10;;;;;;;21.22;66.53;99027.28;5125314;28;20034;-70
2022/07/07 10:55:18;;;;;;;4.80;1.90;;;;;;;21.05;66.59;99027.34;5125333;28;20030;-70
2022/07/07 10:57:46;;;;;;;6.32;2.13;;;;;;;20.89;67.54;99028.25;5125491;28;20023;-70
2022/07/07 11:00:14;;;;;;;3.97;2.25;;;;;;;20.65;68.13;99030.44;5125208;28;20192;-70
2022/07/07 11:02:48;;;;;;;4.53;2.47;;;;;;;20.51;69.35;99035.66;5125420;28;20023;-70
2022/07/07 11:05:14;;;;;;;3.55;2.28;;;;;;;20.53;69.76;99041.75;5125134;28;20023;-70
2022/07/07 11:08:02;;;;;;;3.50;2.38;;;;;;;20.43;69.73;99035.19;5125080;28;20064;-70
2022/07/07 11:10:47;;;;;;;9.20;2.47;;;;;;;20.25;69.64;99041.47;5124850;28;20030;-70
2022/07/07 11:13:33;;;;;;;5.65;2.50;;;;;;;20.27;70.37;99042.28;5124999;28;20225;-70
2022/07/07 11:16:12;;;;;;;5.65;2.70;;;;;;;20.36;70.47;99043.59;5124203;28;20031;-70
2022/07/07 11:18:38;;;;;;;4.65;2.10;;;;;;;20.54;69.82;99046.16;5124839;28;20061;-70
2022/07/07 11:21:05;;;;;;;6.05;2.33;;;;;;;20.79;69.69;99048.41;5124940;28;20086;-70
2022/07/07 11:23:54;;;;;;;6.80;2.30;;;;;;;21.26;67.60;99039.53;5125088;28;20027;-70
2022/07/07 11:26:24;;;;;;;2.88;1.92;;;;;;;22.26;65.91;99056.03;5124807;28;20092;-70
2022/07/07 11:28:57;;;;;;;6.55;2.22;;;;;;;22.38;63.65;99057.09;5124961;28;20042;-70
2022/07/07 11:31:23;;;;;;;8.18;2.47;;;;;;;22.32;63.61;99044.06;5124915;28;20308;-70
2022/07/07 11:33:53;;;;;;;3.25;1.95;;;;;;;22.23;63.88;99049.97;5124933;28;20020;-70